sensor_id;sensor_type;location;lat;lon;timestamp;pressure;altitude;pressure_sealevel;temperature;humidity
62057;BME280;48016;50.284;18.860;2023-02-28T00:00:34;99343.45;;;-1.27;58.85
62057;BME280;48016;50.284;18.860;2023-02-28T00:03:14;99342.63;;;-1.24;59.04
62057;BME280;48016;50.284;18.860;2023-02-28T00:05:41;99337.98;;;-1.22;59.07
62057;BME280;48016;50.284;18.860;2023-02-28T00:08:08;99335.13;;;-1.23;58.93
62057;BME280;48016;50.284;18.860;2023-02-28T00:10:35;99337.94;;;-1.25;59.15
62057;BME280;48016;50.284;18.860;2023-02-28T00:13:04;99337.39;;;-1.26;59.23
62057;BME280;48016;50.284;18.860;2023-02-28T00:15:32;99338.83;;;-1.27;59.29
62057;BME280;48016;50.284;18.860;2023-02-28T00:17:58;99341.52;;;-1.28;59.18
62057;BME280;48016;50.284;18.860;2023-02-28T00:20:25;99339.95;;;-1.31;59.22
62057;BME280;48016;50.284;18.860;2023-02-28T00:22:53;99330.11;;;-1.33;59.15
62057;BME280;48016;50.284;18.860;2023-02-28T00:25:23;99334.81;;;-1.38;58.89
62057;BME280;48016;50.284;18.860;2023-02-28T00:27:51;99335.81;;;-1.41;59.21
62057;BME280;48016;50.284;18.860;2023-02-28T00:30:19;99340.30;;;-1.43;59.48
62057;BME280;48016;50.284;18.860;2023-02-28T00:32:46;99341.38;;;-1.45;59.83
62057;BME280;48016;50.284;18.860;2023-02-28T00:35:13;99340.73;;;-1.44;59.99
62057;BME280;48016;50.284;18.860;2023-02-28T00:37:39;99345.21;;;-1.46;59.72
62057;BME280;48016;50.284;18.860;2023-02-28T00:40:07;99345.48;;;-1.49;59.57
62057;BME280;48016;50.284;18.860;2023-02-28T00:42:35;99344.26;;;-1.53;59.57
62057;BME280;48016;50.284;18.860;2023-02-28T00:45:03;99343.61;;;-1.55;59.54
62057;BME280;48016;50.284;18.860;2023-02-28T00:47:31;99343.35;;;-1.60;59.58
62057;BME280;48016;50.284;18.860;2023-02-28T00:49:57;99336.83;;;-1.64;59.57
62057;BME280;48016;50.284;18.860;2023-02-28T00:52:24;99338.03;;;-1.67;59.69
62057;BME280;48016;50.284;18.860;2023-02-28T00:54:51;99343.89;;;-1.69;59.89
62057;BME280;48016;50.284;18.860;2023-02-28T00:57:17;99348.24;;;-1.70;59.84
62057;BME280;48016;50.284;18.860;2023-02-28T00:59:44;99349.31;;;-1.70;59.99
62057;BME280;48016;50.284;18.860;2023-02-28T01:02:11;99350.11;;;-1.69;59.96
62057;BME280;48016;50.284;18.860;2023-02-28T01:04:37;99348.97;;;-1.66;60.65
62057;BME280;48016;50.284;18.860;2023-02-28T01:07:04;99350.74;;;-1.65;60.59
62057;BME280;48016;50.284;18.860;2023-02-28T01:09:30;99346.25;;;-1.66;60.68
62057;BME280;48016;50.284;18.860;2023-02-28T01:11:57;99344.16;;;-1.66;60.63
62057;BME280;48016;50.284;18.860;2023-02-28T01:14:24;99347.72;;;-1.66;60.69
62057;BME280;48016;50.284;18.860;2023-02-28T01:16:50;99348.84;;;-1.67;60.59
62057;BME280;48016;50.284;18.860;2023-02-28T01:19:18;99349.43;;;-1.68;60.63
62057;BME280;48016;50.284;18.860;2023-02-28T01:21:44;99352.84;;;-1.70;60.74
62057;BME280;48016;50.284;18.860;2023-02-28T01:24:11;99348.04;;;-1.71;60.78
62057;BME280;48016;50.284;18.860;2023-02-28T01:26:37;99351.10;;;-1.72;61.01
62057;BME280;48016;50.284;18.860;2023-02-28T01:29:04;99347.34;;;-1.71;60.94
62057;BME280;48016;50.284;18.860;2023-02-28T01:31:31;99346.11;;;-1.71;60.94
62057;BME280;48016;50.284;18.860;2023-02-28T01:33:57;99340.04;;;-1.71;61.00
62057;BME280;48016;50.284;18.860;2023-02-28T01:36:25;99337.40;;;-1.71;61.03
62057;BME280;48016;50.284;18.860;2023-02-28T01:38:52;99336.69;;;-1.69;61.11
62057;BME280;48016;50.284;18.860;2023-02-28T01:46:14;99333.98;;;-1.74;61.87
62057;BME280;48016;50.284;18.860;2023-02-28T01:48:45;99329.80;;;-1.78;61.82
62057;BME280;48016;50.284;18.860;2023-02-28T01:51:15;99331.30;;;-1.83;61.95
62057;BME280;48016;50.284;18.860;2023-02-28T01:53:49;99330.61;;;-1.83;62.06
62057;BME280;48016;50.284;18.860;2023-02-28T01:56:20;99326.86;;;-1.84;62.26
62057;BME280;48016;50.284;18.860;2023-02-28T01:58:53;99325.62;;;-1.86;62.27
62057;BME280;48016;50.284;18.860;2023-02-28T02:01:21;99321.77;;;-1.87;62.32
62057;BME280;48016;50.284;18.860;2023-02-28T02:03:50;99323.47;;;-1.86;62.43
62057;BME280;48016;50.284;18.860;2023-02-28T02:06:35;99325.99;;;-1.88;62.71
62057;BME280;48016;50.284;18.860;2023-02-28T02:09:03;99323.66;;;-1.92;62.56
62057;BME280;48016;50.284;18.860;2023-02-28T02:11:30;99324.35;;;-1.93;62.74
62057;BME280;48016;50.284;18.860;2023-02-28T02:36:57;99322.98;;;-2.10;64.35
62057;BME280;48016;50.284;18.860;2023-02-28T02:39:49;99324.14;;;-2.12;64.51
62057;BME280;48016;50.284;18.860;2023-02-28T02:42:33;99324.41;;;-2.14;64.75
62057;BME280;48016;50.284;18.860;2023-02-28T02:45:27;99320.43;;;-2.12;64.48
62057;BME280;48016;50.284;18.860;2023-02-28T02:48:03;99318.12;;;-2.09;64.78
62057;BME280;48016;50.284;18.860;2023-02-28T02:50:38;99312.77;;;-2.08;64.96
62057;BME280;48016;50.284;18.860;2023-02-28T02:53:09;99312.80;;;-2.10;65.22
62057;BME280;48016;50.284;18.860;2023-02-28T02:55:41;99311.38;;;-2.16;65.57
62057;BME280;48016;50.284;18.860;2023-02-28T02:58:16;99316.25;;;-2.22;65.33
62057;BME280;48016;50.284;18.860;2023-02-28T03:00:50;99316.36;;;-2.27;65.60
62057;BME280;48016;50.284;18.860;2023-02-28T03:03:18;99318.70;;;-2.31;65.67
62057;BME280;48016;50.284;18.860;2023-02-28T03:05:48;99320.60;;;-2.38;65.85
62057;BME280;48016;50.284;18.860;2023-02-28T03:08:16;99321.11;;;-2.45;66.26
62057;BME280;48016;50.284;18.860;2023-02-28T03:10:45;99324.69;;;-2.53;66.38
62057;BME280;48016;50.284;18.860;2023-02-28T03:18:50;99330.28;;;-2.71;66.64
62057;BME280;48016;50.284;18.860;2023-02-28T03:24:14;99322.90;;;-2.83;66.75
62057;BME280;48016;50.284;18.860;2023-02-28T03:26:55;99325.88;;;-2.86;66.96
62057;BME280;48016;50.284;18.860;2023-02-28T03:29:33;99322.98;;;-2.91;67.06
62057;BME280;48016;50.284;18.860;2023-02-28T03:32:10;99329.98;;;-2.94;67.17
62057;BME280;48016;50.284;18.860;2023-02-28T03:34:46;99336.20;;;-2.99;67.57
62057;BME280;48016;50.284;18.860;2023-02-28T03:37:19;99335.88;;;-3.03;67.61
62057;BME280;48016;50.284;18.860;2023-02-28T03:39:51;99331.63;;;-3.04;67.46
62057;BME280;48016;50.284;18.860;2023-02-28T03:42:22;99332.73;;;-3.05;67.43
62057;BME280;48016;50.284;18.860;2023-02-28T03:45:02;99338.70;;;-3.06;67.58
62057;BME280;48016;50.284;18.860;2023-02-28T03:50:22;99341.61;;;-3.15;68.27
62057;BME280;48016;50.284;18.860;2023-02-28T03:52:58;99345.98;;;-3.16;68.31
62057;BME280;48016;50.284;18.860;2023-02-28T03:55:32;99346.77;;;-3.20;68.32
62057;BME280;48016;50.284;18.860;2023-02-28T03:58:10;99343.91;;;-3.21;68.22
62057;BME280;48016;50.284;18.860;2023-02-28T04:00:44;99344.26;;;-3.23;68.19
62057;BME280;48016;50.284;18.860;2023-02-28T04:03:12;99347.75;;;-3.27;68.14
62057;BME280;48016;50.284;18.860;2023-02-28T04:05:52;99347.51;;;-3.29;68.21
62057;BME280;48016;50.284;18.860;2023-02-28T04:08:21;99348.70;;;-3.33;68.39
62057;BME280;48016;50.284;18.860;2023-02-28T04:10:54;99349.02;;;-3.38;68.63
62057;BME280;48016;50.284;18.860;2023-02-28T04:13:22;99353.13;;;-3.43;68.50
62057;BME280;48016;50.284;18.860;2023-02-28T04:15:48;99356.02;;;-3.48;68.83
62057;BME280;48016;50.284;18.860;2023-02-28T04:18:15;99353.27;;;-3.54;68.58
62057;BME280;48016;50.284;18.860;2023-02-28T04:20:41;99353.50;;;-3.60;68.96
62057;BME280;48016;50.284;18.860;2023-02-28T04:23:08;99355.30;;;-3.65;69.57
62057;BME280;48016;50.284;18.860;2023-02-28T04:25:35;99357.13;;;-3.70;69.29
62057;BME280;48016;50.284;18.860;2023-02-28T04:28:01;99358.68;;;-3.71;69.26
62057;BME280;48016;50.284;18.860;2023-02-28T04:30:28;99359.19;;;-3.71;69.95
62057;BME280;48016;50.284;18.860;2023-02-28T04:32:55;99363.63;;;-3.69;69.81
62057;BME280;48016;50.284;18.860;2023-02-28T04:35:22;99365.48;;;-3.69;69.76
62057;BME280;48016;50.284;18.860;2023-02-28T04:37:49;99368.17;;;-3.65;69.91
62057;BME280;48016;50.284;18.860;2023-02-28T04:40:15;99370.02;;;-3.62;69.99
62057;BME280;48016;50.284;18.860;2023-02-28T04:42:42;99373.92;;;-3.62;70.24
62057;BME280;48016;50.284;18.860;2023-02-28T04:45:09;99375.01;;;-3.62;70.16
62057;BME280;48016;50.284;18.860;2023-02-28T04:47:36;99378.48;;;-3.64;70.16
62057;BME280;48016;50.284;18.860;2023-02-28T04:50:03;99376.89;;;-3.66;70.54
62057;BME280;48016;50.284;18.860;2023-02-28T04:52:30;99375.10;;;-3.70;70.28
62057;BME280;48016;50.284;18.860;2023-02-28T04:54:56;99380.31;;;-3.71;70.26
62057;BME280;48016;50.284;18.860;2023-02-28T04:57:23;99381.56;;;-3.73;70.21
62057;BME280;48016;50.284;18.860;2023-02-28T04:59:50;99380.14;;;-3.76;70.16
62057;BME280;48016;50.284;18.860;2023-02-28T05:02:16;99380.05;;;-3.79;70.45
62057;BME280;48016;50.284;18.860;2023-02-28T05:04:43;99377.04;;;-3.81;70.27
62057;BME280;48016;50.284;18.860;2023-02-28T05:07:10;99379.71;;;-3.83;70.61
62057;BME280;48016;50.284;18.860;2023-02-28T05:09:36;99382.03;;;-3.84;70.19
62057;BME280;48016;50.284;18.860;2023-02-28T05:12:03;99380.88;;;-3.83;70.23
62057;BME280;48016;50.284;18.860;2023-02-28T05:14:29;99378.20;;;-3.82;70.87
62057;BME280;48016;50.284;18.860;2023-02-28T05:16:56;99382.02;;;-3.80;70.70
62057;BME280;48016;50.284;18.860;2023-02-28T05:19:23;99377.13;;;-3.78;70.87
62057;BME280;48016;50.284;18.860;2023-02-28T05:21:54;99381.23;;;-3.79;70.73
62057;BME280;48016;50.284;18.860;2023-02-28T05:24:21;99385.38;;;-3.80;70.93
62057;BME280;48016;50.284;18.860;2023-02-28T05:26:52;99385.11;;;-3.81;70.93
62057;BME280;48016;50.284;18.860;2023-02-28T05:29:19;99387.85;;;-3.82;70.66
62057;BME280;48016;50.284;18.860;2023-02-28T05:31:46;99386.73;;;-3.83;70.99
62057;BME280;48016;50.284;18.860;2023-02-28T05:34:13;99385.83;;;-3.85;70.97
62057;BME280;48016;50.284;18.860;2023-02-28T05:36:42;99389.88;;;-3.87;70.67
62057;BME280;48016;50.284;18.860;2023-02-28T05:39:09;99395.88;;;-3.87;70.63
62057;BME280;48016;50.284;18.860;2023-02-28T05:41:40;99396.55;;;-3.89;70.76
62057;BME280;48016;50.284;18.860;2023-02-28T05:44:07;99396.94;;;-3.89;71.24
62057;BME280;48016;50.284;18.860;2023-02-28T05:46:34;99402.39;;;-3.89;71.22
62057;BME280;48016;50.284;18.860;2023-02-28T05:49:01;99403.73;;;-3.90;71.15
62057;BME280;48016;50.284;18.860;2023-02-28T05:51:28;99403.09;;;-3.89;71.13
62057;BME280;48016;50.284;18.860;2023-02-28T05:53:58;99407.10;;;-3.84;70.83
62057;BME280;48016;50.284;18.860;2023-02-28T05:56:25;99410.37;;;-3.80;70.88
62057;BME280;48016;50.284;18.860;2023-02-28T05:58:51;99411.54;;;-3.75;71.16
62057;BME280;48016;50.284;18.860;2023-02-28T06:01:21;99415.14;;;-3.68;70.99
62057;BME280;48016;50.284;18.860;2023-02-28T06:03:49;99415.58;;;-3.61;71.26
62057;BME280;48016;50.284;18.860;2023-02-28T06:06:15;99419.36;;;-3.56;70.89
62057;BME280;48016;50.284;18.860;2023-02-28T06:08:42;99419.11;;;-3.55;71.05
62057;BME280;48016;50.284;18.860;2023-02-28T06:11:11;99426.58;;;-3.52;70.97
62057;BME280;48016;50.284;18.860;2023-02-28T06:13:38;99428.69;;;-3.46;70.78
62057;BME280;48016;50.284;18.860;2023-02-28T06:16:05;99422.13;;;-3.42;70.63
62057;BME280;48016;50.284;18.860;2023-02-28T06:18:31;99419.55;;;-3.36;70.66
62057;BME280;48016;50.284;18.860;2023-02-28T06:20:58;99424.27;;;-3.32;70.46
62057;BME280;48016;50.284;18.860;2023-02-28T06:23:25;99428.16;;;-3.27;70.23
62057;BME280;48016;50.284;18.860;2023-02-28T06:25:51;99434.75;;;-3.19;70.13
62057;BME280;48016;50.284;18.860;2023-02-28T06:28:19;99433.99;;;-3.11;70.12
62057;BME280;48016;50.284;18.860;2023-02-28T06:30:46;99437.24;;;-2.96;69.92
62057;BME280;48016;50.284;18.860;2023-02-28T06:33:12;99443.32;;;-2.76;69.71
62057;BME280;48016;50.284;18.860;2023-02-28T06:35:39;99446.09;;;-2.51;69.75
62057;BME280;48016;50.284;18.860;2023-02-28T06:38:05;99444.11;;;-2.26;68.96
62057;BME280;48016;50.284;18.860;2023-02-28T06:40:32;99449.67;;;-2.05;68.76
62057;BME280;48016;50.284;18.860;2023-02-28T06:43:01;99445.36;;;-1.72;68.78
62057;BME280;48016;50.284;18.860;2023-02-28T06:45:28;99446.33;;;-1.42;67.97
62057;BME280;48016;50.284;18.860;2023-02-28T06:47:55;99445.11;;;-1.19;67.04
62057;BME280;48016;50.284;18.860;2023-02-28T06:50:21;99446.75;;;-1.00;66.47
62057;BME280;48016;50.284;18.860;2023-02-28T06:52:48;99444.36;;;-0.80;66.01
62057;BME280;48016;50.284;18.860;2023-02-28T06:55:20;99445.49;;;-0.61;65.70
62057;BME280;48016;50.284;18.860;2023-02-28T06:57:46;99447.30;;;-0.35;65.90
62057;BME280;48016;50.284;18.860;2023-02-28T07:00:13;99447.92;;;-0.14;64.75
62057;BME280;48016;50.284;18.860;2023-02-28T07:02:40;99449.31;;;0.11;63.56
62057;BME280;48016;50.284;18.860;2023-02-28T07:05:07;99455.42;;;0.13;62.11
62057;BME280;48016;50.284;18.860;2023-02-28T07:07:34;99454.65;;;0.17;63.02
62057;BME280;48016;50.284;18.860;2023-02-28T07:10:02;99455.61;;;0.33;63.15
62057;BME280;48016;50.284;18.860;2023-02-28T07:12:29;99456.39;;;0.48;63.08
62057;BME280;48016;50.284;18.860;2023-02-28T07:14:55;99456.76;;;0.61;62.43
62057;BME280;48016;50.284;18.860;2023-02-28T07:17:23;99456.50;;;0.64;61.32
62057;BME280;48016;50.284;18.860;2023-02-28T07:19:49;99457.54;;;0.69;61.48
62057;BME280;48016;50.284;18.860;2023-02-28T07:22:16;99460.14;;;0.73;60.78
62057;BME280;48016;50.284;18.860;2023-02-28T07:24:43;99460.61;;;0.75;61.00
62057;BME280;48016;50.284;18.860;2023-02-28T07:27:09;99463.76;;;0.84;61.26
62057;BME280;48016;50.284;18.860;2023-02-28T07:29:36;99459.34;;;0.95;60.67
62057;BME280;48016;50.284;18.860;2023-02-28T07:32:04;99459.09;;;1.09;60.89
62057;BME280;48016;50.284;18.860;2023-02-28T07:34:31;99460.94;;;1.30;60.05
62057;BME280;48016;50.284;18.860;2023-02-28T07:36:57;99457.86;;;1.48;60.06
62057;BME280;48016;50.284;18.860;2023-02-28T07:39:24;99456.81;;;1.60;60.36
62057;BME280;48016;50.284;18.860;2023-02-28T07:41:51;99457.36;;;1.67;59.58
62057;BME280;48016;50.284;18.860;2023-02-28T07:44:17;99462.29;;;1.76;59.60
62057;BME280;48016;50.284;18.860;2023-02-28T07:46:44;99461.58;;;1.79;58.19
62057;BME280;48016;50.284;18.860;2023-02-28T07:49:11;99456.92;;;1.73;58.21
62057;BME280;48016;50.284;18.860;2023-02-28T07:51:37;99460.51;;;1.62;57.80
62057;BME280;48016;50.284;18.860;2023-02-28T07:54:04;99458.70;;;1.47;58.39
62057;BME280;48016;50.284;18.860;2023-02-28T07:56:31;99461.64;;;1.25;55.98
62057;BME280;48016;50.284;18.860;2023-02-28T07:58:57;99456.29;;;0.96;57.12
62057;BME280;48016;50.284;18.860;2023-02-28T08:01:24;99460.20;;;0.82;57.60
62057;BME280;48016;50.284;18.860;2023-02-28T08:03:51;99461.52;;;0.63;57.16
62057;BME280;48016;50.284;18.860;2023-02-28T08:06:20;99462.45;;;0.51;57.56
62057;BME280;48016;50.284;18.860;2023-02-28T08:08:48;99462.63;;;0.33;57.04
62057;BME280;48016;50.284;18.860;2023-02-28T08:11:16;99469.15;;;0.12;57.54
62057;BME280;48016;50.284;18.860;2023-02-28T08:13:44;99466.11;;;0.01;58.12
62057;BME280;48016;50.284;18.860;2023-02-28T08:16:12;99466.98;;;-0.01;57.92
62057;BME280;48016;50.284;18.860;2023-02-28T08:18:43;99472.84;;;-0.11;58.07
62057;BME280;48016;50.284;18.860;2023-02-28T08:21:10;99469.86;;;-0.24;58.26
62057;BME280;48016;50.284;18.860;2023-02-28T08:23:37;99469.00;;;-0.33;58.32
62057;BME280;48016;50.284;18.860;2023-02-28T08:26:04;99471.70;;;-0.36;58.78
62057;BME280;48016;50.284;18.860;2023-02-28T08:28:31;99471.11;;;-0.36;58.42
62057;BME280;48016;50.284;18.860;2023-02-28T08:30:58;99469.83;;;-0.34;58.42
62057;BME280;48016;50.284;18.860;2023-02-28T08:33:27;99467.41;;;-0.21;58.91
62057;BME280;48016;50.284;18.860;2023-02-28T08:35:54;99465.73;;;-0.10;58.84
62057;BME280;48016;50.284;18.860;2023-02-28T08:38:21;99469.90;;;-0.05;58.27
62057;BME280;48016;50.284;18.860;2023-02-28T08:40:48;99471.10;;;-0.10;58.11
62057;BME280;48016;50.284;18.860;2023-02-28T08:43:14;99473.91;;;0.01;57.47
62057;BME280;48016;50.284;18.860;2023-02-28T08:45:41;99477.44;;;0.01;56.71
62057;BME280;48016;50.284;18.860;2023-02-28T08:48:07;99470.66;;;-0.06;55.74
62057;BME280;48016;50.284;18.860;2023-02-28T08:50:34;99469.17;;;-0.05;55.83
62057;BME280;48016;50.284;18.860;2023-02-28T08:53:01;99473.02;;;0.04;56.01
62057;BME280;48016;50.284;18.860;2023-02-28T08:55:27;99476.95;;;0.16;56.37
62057;BME280;48016;50.284;18.860;2023-02-28T08:57:54;99472.19;;;0.23;54.40
62057;BME280;48016;50.284;18.860;2023-02-28T09:00:21;99472.02;;;0.29;55.27
62057;BME280;48016;50.284;18.860;2023-02-28T09:02:48;99477.46;;;0.36;52.97
62057;BME280;48016;50.284;18.860;2023-02-28T09:05:15;99470.04;;;0.33;52.85
62057;BME280;48016;50.284;18.860;2023-02-28T09:07:41;99465.98;;;0.46;53.99
62057;BME280;48016;50.284;18.860;2023-02-28T09:10:09;99468.89;;;0.66;53.62
62057;BME280;48016;50.284;18.860;2023-02-28T09:12:36;99471.25;;;0.82;53.29
62057;BME280;48016;50.284;18.860;2023-02-28T09:15:03;99464.95;;;1.03;53.93
62057;BME280;48016;50.284;18.860;2023-02-28T09:17:30;99468.70;;;1.27;52.73
62057;BME280;48016;50.284;18.860;2023-02-28T09:19:57;99470.03;;;1.43;52.81
62057;BME280;48016;50.284;18.860;2023-02-28T09:22:24;99468.47;;;1.62;53.13
62057;BME280;48016;50.284;18.860;2023-02-28T09:24:51;99466.02;;;1.76;52.28
62057;BME280;48016;50.284;18.860;2023-02-28T09:27:18;99464.27;;;1.74;51.36
62057;BME280;48016;50.284;18.860;2023-02-28T09:29:44;99463.57;;;1.82;51.60
62057;BME280;48016;50.284;18.860;2023-02-28T09:32:11;99467.04;;;1.93;50.89
62057;BME280;48016;50.284;18.860;2023-02-28T09:34:38;99470.39;;;2.02;51.05
62057;BME280;48016;50.284;18.860;2023-02-28T09:37:05;99470.82;;;2.03;51.04
62057;BME280;48016;50.284;18.860;2023-02-28T09:39:31;99474.54;;;2.06;52.53
62057;BME280;48016;50.284;18.860;2023-02-28T09:41:58;99475.23;;;2.00;50.73
62057;BME280;48016;50.284;18.860;2023-02-28T09:47:13;99476.10;;;1.54;50.49
62057;BME280;48016;50.284;18.860;2023-02-28T09:49:47;99474.48;;;1.43;50.47
62057;BME280;48016;50.284;18.860;2023-02-28T09:52:28;99474.11;;;1.40;51.43
62057;BME280;48016;50.284;18.860;2023-02-28T09:54:55;99482.69;;;1.38;51.20
62057;BME280;48016;50.284;18.860;2023-02-28T09:57:38;99478.16;;;1.25;50.65
62057;BME280;48016;50.284;18.860;2023-02-28T10:00:33;99476.13;;;1.23;51.40
62057;BME280;48016;50.284;18.860;2023-02-28T10:05:43;99479.64;;;1.28;51.66
62057;BME280;48016;50.284;18.860;2023-02-28T10:08:17;99481.83;;;1.17;51.50
62057;BME280;48016;50.284;18.860;2023-02-28T10:10:49;99481.84;;;1.14;51.37
62057;BME280;48016;50.284;18.860;2023-02-28T10:13:26;99483.57;;;1.13;51.45
62057;BME280;48016;50.284;18.860;2023-02-28T10:16:03;99477.91;;;1.14;51.43
62057;BME280;48016;50.284;18.860;2023-02-28T10:18:43;99473.70;;;1.09;51.61
62057;BME280;48016;50.284;18.860;2023-02-28T10:21:35;99474.98;;;0.89;50.87
62057;BME280;48016;50.284;18.860;2023-02-28T10:24:10;99468.31;;;0.83;51.53
62057;BME280;48016;50.284;18.860;2023-02-28T10:26:43;99464.35;;;0.90;52.16
62057;BME280;48016;50.284;18.860;2023-02-28T10:29:11;99458.35;;;1.03;52.45
62057;BME280;48016;50.284;18.860;2023-02-28T10:31:38;99461.86;;;1.20;52.77
62057;BME280;48016;50.284;18.860;2023-02-28T10:34:05;99455.17;;;1.31;52.24
62057;BME280;48016;50.284;18.860;2023-02-28T10:36:32;99458.42;;;1.46;52.11
62057;BME280;48016;50.284;18.860;2023-02-28T10:38:59;99454.67;;;1.68;51.65
62057;BME280;48016;50.284;18.860;2023-02-28T10:41:31;99451.23;;;1.94;52.13
62057;BME280;48016;50.284;18.860;2023-02-28T10:44:21;99460.70;;;2.17;50.47
62057;BME280;48016;50.284;18.860;2023-02-28T10:46:48;99461.27;;;2.11;49.80
62057;BME280;48016;50.284;18.860;2023-02-28T10:49:26;99454.73;;;2.07;49.57
62057;BME280;48016;50.284;18.860;2023-02-28T10:51:57;99453.97;;;2.17;50.13
62057;BME280;48016;50.284;18.860;2023-02-28T10:57:20;99447.36;;;2.35;49.31
62057;BME280;48016;50.284;18.860;2023-02-28T11:00:13;99446.23;;;2.34;48.84
62057;BME280;48016;50.284;18.860;2023-02-28T11:02:41;99442.60;;;2.39;49.74
62057;BME280;48016;50.284;18.860;2023-02-28T11:05:31;99439.49;;;2.60;49.85
62057;BME280;48016;50.284;18.860;2023-02-28T11:08:12;99435.89;;;2.79;49.69
62057;BME280;48016;50.284;18.860;2023-02-28T11:10:39;99439.40;;;2.88;49.56
62057;BME280;48016;50.284;18.860;2023-02-28T11:13:06;99431.75;;;2.99;48.92
62057;BME280;48016;50.284;18.860;2023-02-28T11:15:34;99433.19;;;2.99;48.72
62057;BME280;48016;50.284;18.860;2023-02-28T11:18:24;99429.27;;;2.96;48.29
62057;BME280;48016;50.284;18.860;2023-02-28T11:20:55;99423.98;;;2.97;48.80
62057;BME280;48016;50.284;18.860;2023-02-28T11:23:26;99426.92;;;2.98;48.67
62057;BME280;48016;50.284;18.860;2023-02-28T11:25:59;99424.60;;;2.92;48.63
62057;BME280;48016;50.284;18.860;2023-02-28T11:28:34;99419.58;;;2.85;48.20
62057;BME280;48016;50.284;18.860;2023-02-28T11:36:31;99411.05;;;2.32;48.50
62057;BME280;48016;50.284;18.860;2023-02-28T11:39:01;99405.17;;;2.25;49.74
62057;BME280;48016;50.284;18.860;2023-02-28T11:46:45;99396.98;;;2.27;50.05
62057;BME280;48016;50.284;18.860;2023-02-28T11:52:20;99400.19;;;1.95;48.51
62057;BME280;48016;50.284;18.860;2023-02-28T11:57:33;99399.46;;;1.93;49.89
62057;BME280;48016;50.284;18.860;2023-02-28T12:11:09;99383.25;;;1.80;49.51
62057;BME280;48016;50.284;18.860;2023-02-28T12:13:50;99377.86;;;1.66;49.65
62057;BME280;48016;50.284;18.860;2023-02-28T12:19:06;99382.13;;;1.74;50.77
62057;BME280;48016;50.284;18.860;2023-02-28T12:27:39;99384.23;;;1.73;50.42
62057;BME280;48016;50.284;18.860;2023-02-28T12:32:49;99381.05;;;1.81;50.61
62057;BME280;48016;50.284;18.860;2023-02-28T12:35:23;99379.15;;;1.80;50.34
62057;BME280;48016;50.284;18.860;2023-02-28T12:37:57;99379.97;;;1.84;50.65
62057;BME280;48016;50.284;18.860;2023-02-28T12:40:53;99373.49;;;1.85;50.67
62057;BME280;48016;50.284;18.860;2023-02-28T12:43:22;99370.95;;;1.85;50.38
62057;BME280;48016;50.284;18.860;2023-02-28T12:48:46;99365.79;;;1.89;50.52
62057;BME280;48016;50.284;18.860;2023-02-28T12:51:15;99361.13;;;1.86;50.36
62057;BME280;48016;50.284;18.860;2023-02-28T12:53:59;99356.96;;;1.78;49.83
62057;BME280;48016;50.284;18.860;2023-02-28T12:59:14;99361.24;;;1.70;49.45
62057;BME280;48016;50.284;18.860;2023-02-28T13:10:13;99362.34;;;1.51;50.29
62057;BME280;48016;50.284;18.860;2023-02-28T13:12:53;99363.81;;;1.49;50.33
62057;BME280;48016;50.284;18.860;2023-02-28T13:15:26;99363.41;;;1.51;50.50
62057;BME280;48016;50.284;18.860;2023-02-28T13:18:03;99360.54;;;1.53;50.55
62057;BME280;48016;50.284;18.860;2023-02-28T13:20:35;99358.98;;;1.59;50.92
62057;BME280;48016;50.284;18.860;2023-02-28T13:23:03;99358.37;;;1.64;50.70
62057;BME280;48016;50.284;18.860;2023-02-28T13:28:02;99355.31;;;1.63;50.67
62057;BME280;48016;50.284;18.860;2023-02-28T13:33:33;99351.93;;;1.71;50.82
62057;BME280;48016;50.284;18.860;2023-02-28T13:38:56;99347.45;;;1.83;50.85
62057;BME280;48016;50.284;18.860;2023-02-28T13:44:14;99345.77;;;1.77;50.15
62057;BME280;48016;50.284;18.860;2023-02-28T13:54:31;99337.33;;;1.79;50.83
62057;BME280;48016;50.284;18.860;2023-02-28T13:59:53;99340.58;;;1.75;50.07
62057;BME280;48016;50.284;18.860;2023-02-28T14:05:13;99332.88;;;1.66;49.95
62057;BME280;48016;50.284;18.860;2023-02-28T14:07:53;99333.35;;;1.65;50.10
62057;BME280;48016;50.284;18.860;2023-02-28T14:10:29;99332.34;;;1.59;49.72
62057;BME280;48016;50.284;18.860;2023-02-28T14:12:58;99327.70;;;1.57;50.31
62057;BME280;48016;50.284;18.860;2023-02-28T14:15:46;99323.01;;;1.60;50.57
62057;BME280;48016;50.284;18.860;2023-02-28T14:18:33;99324.50;;;1.61;50.16
62057;BME280;48016;50.284;18.860;2023-02-28T14:21:20;99323.28;;;1.55;50.12
62057;BME280;48016;50.284;18.860;2023-02-28T14:34:55;99319.15;;;1.48;49.92
62057;BME280;48016;50.284;18.860;2023-02-28T14:37:30;99309.27;;;1.49;50.35
62057;BME280;48016;50.284;18.860;2023-02-28T14:39:59;99308.30;;;1.51;50.49
62057;BME280;48016;50.284;18.860;2023-02-28T14:42:34;99304.01;;;1.53;49.91
62057;BME280;48016;50.284;18.860;2023-02-28T14:45:02;99306.34;;;1.51;49.25
62057;BME280;48016;50.284;18.860;2023-02-28T14:47:32;99299.63;;;1.46;49.52
62057;BME280;48016;50.284;18.860;2023-02-28T14:50:00;99305.08;;;1.42;49.68
62057;BME280;48016;50.284;18.860;2023-02-28T14:52:30;99303.83;;;1.44;50.24
62057;BME280;48016;50.284;18.860;2023-02-28T14:55:01;99302.80;;;1.45;50.25
62057;BME280;48016;50.284;18.860;2023-02-28T14:57:32;99305.45;;;1.45;50.50
62057;BME280;48016;50.284;18.860;2023-02-28T15:02:44;99305.16;;;1.48;50.38
62057;BME280;48016;50.284;18.860;2023-02-28T15:07:44;99306.49;;;1.43;50.54
62057;BME280;48016;50.284;18.860;2023-02-28T15:12:39;99305.20;;;1.41;50.84
62057;BME280;48016;50.284;18.860;2023-02-28T15:15:15;99304.31;;;1.38;50.96
62057;BME280;48016;50.284;18.860;2023-02-28T15:17:45;99306.52;;;1.39;51.05
62057;BME280;48016;50.284;18.860;2023-02-28T15:20:14;99304.29;;;1.38;51.28
62057;BME280;48016;50.284;18.860;2023-02-28T15:22:41;99306.34;;;1.39;51.49
62057;BME280;48016;50.284;18.860;2023-02-28T15:25:13;99303.62;;;1.38;51.37
62057;BME280;48016;50.284;18.860;2023-02-28T15:27:47;99299.08;;;1.35;51.73
62057;BME280;48016;50.284;18.860;2023-02-28T15:30:20;99303.39;;;1.34;51.72
62057;BME280;48016;50.284;18.860;2023-02-28T15:35:32;99301.79;;;1.25;51.88